Time;durP1;ratioP1;P1;durP2;ratioP2;P2;SDS_P1;SDS_P2;PMS_P1;PMS_P2;Temp;Humidity;BMP_temperature;BMP_pressure;BME280_temperature;BME280_humidity;BME280_pressure;Samples;Min_cycle;Max_cycle;Signal;HPM_P1;HPM_P2
2023/12/17 00:00:21;;;;;;;30.35;16.30;;;;;;;4.99;100.00;101479.07;1756177;80;25392;-56
2023/12/17 00:02:49;;;;;;;23.18;15.03;;;;;;;4.99;100.00;101479.07;1774496;79;25397;-57
2023/12/17 00:05:20;;;;;;;26.42;16.75;;;;;;;5.01;100.00;101486.34;1774552;80;25456;-58
2023/12/17 00:07:47;;;;;;;29.35;16.23;;;;;;;5.01;100.00;101485.53;1756315;79;28388;-57
2023/12/17 00:10:14;;;;;;;25.40;16.52;;;;;;;5.01;100.00;101476.95;1771857;80;26415;-58
2023/12/17 00:12:40;;;;;;;26.55;16.77;;;;;;;5.02;100.00;101486.64;1771257;79;25816;-56
2023/12/17 00:15:07;;;;;;;23.10;15.25;;;;;;;5.04;100.00;101491.77;1762411;80;25595;-55
2023/12/17 00:17:36;;;;;;;26.37;16.93;;;;;;;5.05;100.00;101478.62;1768239;79;25766;-56
2023/12/17 00:20:11;;;;;;;22.27;16.07;;;;;;;5.05;100.00;101470.03;1768808;79;27673;-57
2023/12/17 00:22:37;;;;;;;28.35;16.50;;;;;;;5.08;100.00;101462.05;1758879;80;25755;-56
2023/12/17 00:25:10;;;;;;;24.82;15.35;;;;;;;5.09;100.00;101462.34;1759056;80;25478;-57
2023/12/17 00:27:37;;;;;;;27.80;15.93;;;;;;;5.12;100.00;101464.52;1760177;80;26618;-57
2023/12/17 00:30:12;;;;;;;24.95;15.23;;;;;;;5.14;100.00;101458.91;1758768;80;25615;-57
2023/12/17 00:32:38;;;;;;;24.20;15.58;;;;;;;5.15;100.00;101445.26;1761592;80;28049;-55
2023/12/17 00:35:08;;;;;;;25.45;14.63;;;;;;;5.18;100.00;101436.73;1765678;80;25903;-57
2023/12/17 00:37:41;;;;;;;22.30;15.00;;;;;;;5.20;100.00;101440.52;1753342;80;25839;-56
2023/12/17 00:40:11;;;;;;;23.75;15.08;;;;;;;5.21;100.00;101440.78;1784290;80;25957;-58
2023/12/17 00:43:06;;;;;;;27.10;15.90;;;;;;;5.23;100.00;101474.91;1781836;79;25866;-57
2023/12/17 00:45:33;;;;;;;20.65;14.07;;;;;;;5.24;100.00;101459.91;1720546;81;27916;-57
2023/12/17 00:48:00;;;;;;;21.60;13.55;;;;;;;5.27;100.00;101461.81;1707220;82;25909;-55
2023/12/17 00:50:29;;;;;;;22.05;14.03;;;;;;;5.29;100.00;101435.55;1722438;82;26099;-58
2023/12/17 00:52:56;;;;;;;58.52;33.45;;;;;;;5.29;100.00;101443.05;1720139;82;26702;-56
2023/12/17 00:55:24;;;;;;;25.02;15.53;;;;;;;5.34;100.00;101451.18;1724281;82;25866;-58
2023/12/17 00:57:57;;;;;;;23.50;15.35;;;;;;;5.39;100.00;101465.21;1722433;82;27667;-58
2023/12/17 01:00:25;;;;;;;25.02;15.53;;;;;;;5.42;100.00;101455.33;1719828;82;25666;-60
2023/12/17 01:02:51;;;;;;;24.55;14.80;;;;;;;5.42;100.00;101466.88;1721164;82;25890;-58
2023/12/17 01:05:18;;;;;;;27.77;15.85;;;;;;;5.43;100.00;101454.26;1722345;82;25847;-54
2023/12/17 01:07:45;;;;;;;28.92;15.30;;;;;;;5.44;100.00;101450.53;1718458;82;25774;-57
2023/12/17 01:10:12;;;;;;;23.25;14.93;;;;;;;5.46;100.00;101443.58;1719283;82;27674;-57
2023/12/17 01:12:40;;;;;;;26.40;15.65;;;;;;;5.47;100.00;101431.80;1720729;82;26834;-57
2023/12/17 01:15:12;;;;;;;25.97;15.08;;;;;;;5.48;100.00;101433.41;1722176;82;25879;-59
2023/12/17 01:17:44;;;;;;;27.42;15.90;;;;;;;5.49;100.00;101436.38;1723713;82;26250;-58
2023/12/17 01:20:15;;;;;;;23.65;15.08;;;;;;;5.51;100.00;101439.63;1720234;82;25892;-59
2023/12/17 01:22:47;;;;;;;26.95;15.70;;;;;;;5.52;100.00;101438.04;1721469;81;27651;-60
2023/12/17 01:25:17;;;;;;;27.07;15.55;;;;;;;5.53;100.00;101441.52;1725571;81;25897;-56
2023/12/17 01:27:44;;;;;;;;;;;;;;;5.54;100.00;101417.67;1703805;82;25840;-58
2023/12/17 01:30:12;;;;;;;26.95;14.53;;;;;;;5.55;100.00;101408.03;1724895;81;26617;-58
2023/12/17 01:32:39;;;;;;;25.97;15.90;;;;;;;5.56;100.00;101402.13;1727263;81;25826;-59
2023/12/17 01:35:08;;;;;;;27.45;15.83;;;;;;;5.58;100.00;101416.09;1718618;82;27997;-58
2023/12/17 01:37:40;;;;;;;23.87;14.23;;;;;;;5.58;100.00;101427.67;1718236;81;25479;-57
2023/12/17 01:40:08;;;;;;;;;;;;;;;5.60;100.00;101416.66;1701056;81;25903;-58
2023/12/17 01:42:35;;;;;;;26.70;16.50;;;;;;;5.61;100.00;101411.05;1659682;84;26030;-58
2023/12/17 01:45:10;;;;;;;32.25;18.00;;;;;;;5.60;100.00;101410.78;1692360;82;25603;-57
2023/12/17 01:47:46;;;;;;;29.27;16.90;;;;;;;5.61;100.00;101417.75;1689548;82;27349;-57
2023/12/17 01:50:15;;;;;;;25.97;16.25;;;;;;;5.63;100.00;101409.45;1673511;84;25945;-56
2023/12/17 01:52:45;;;;;;;28.92;17.75;;;;;;;5.64;100.00;101425.05;1702724;82;25887;-56
2023/12/17 01:55:20;;;;;;;29.75;17.60;;;;;;;5.64;100.00;101407.06;1695683;83;25972;-56
2023/12/17 01:57:47;;;;;;;26.82;17.10;;;;;;;5.64;100.00;101415.66;1733787;81;25934;-57
2023/12/17 02:00:15;;;;;;;34.03;17.82;;;;;;;5.65;100.00;101414.58;1704576;83;27315;-58
2023/12/17 02:02:45;;;;;;;34.40;18.92;;;;;;;5.63;100.00;101396.58;1696603;82;25837;-58
2023/12/17 02:05:19;;;;;;;34.30;17.82;;;;;;;5.63;100.00;101396.03;1688567;82;25834;-58
2023/12/17 02:07:52;;;;;;;37.55;19.52;;;;;;;5.63;100.00;101397.92;1707190;81;25891;-60
2023/12/17 02:10:19;;;;;;;34.88;18.70;;;;;;;5.63;100.00;101393.34;1692392;83;25752;-57
2023/12/17 02:12:47;;;;;;;32.70;18.60;;;;;;;5.63;100.00;101379.13;1703424;81;27709;-59
2023/12/17 02:15:16;;;;;;;32.90;19.00;;;;;;;5.65;100.00;101390.42;1681630;82;25864;-58
2023/12/17 02:17:45;;;;;;;28.27;16.75;;;;;;;5.64;100.00;101386.94;1684644;83;25621;-59
2023/12/17 02:20:19;;;;;;;31.60;18.10;;;;;;;5.64;100.00;101399.02;1682803;84;26063;-59
2023/12/17 02:22:53;;;;;;;33.35;18.67;;;;;;;5.64;100.00;101392.84;1659698;84;25935;-59
2023/12/17 02:25:20;;;;;;;28.87;18.25;;;;;;;5.64;100.00;101399.02;1724777;81;27250;-59
2023/12/17 02:27:50;;;;;;;34.08;18.85;;;;;;;5.65;100.00;101389.08;1716504;81;25863;-59
2023/12/17 02:30:20;;;;;;;33.20;19.37;;;;;;;5.64;100.00;101393.64;1689613;82;25815;-59
2023/12/17 02:32:49;;;;;;;33.38;18.70;;;;;;;5.64;100.00;101389.62;1721260;81;26869;-59
2023/12/17 02:35:18;;;;;;;27.95;17.87;;;;;;;5.65;100.00;101375.12;1711492;80;25479;-58
2023/12/17 02:37:44;;;;;;;36.15;19.17;;;;;;;5.66;100.00;101377.30;1709372;81;27237;-57
2023/12/17 02:40:11;;;;;;;30.90;17.62;;;;;;;5.66;100.00;101365.21;1717944;81;26361;-58
2023/12/17 02:42:38;;;;;;;34.43;20.08;;;;;;;5.65;100.00;101372.44;1688517;83;25850;-57
2023/12/17 02:45:06;;;;;;;29.23;18.62;;;;;;;5.65;100.00;101368.41;1667924;84;26282;-58
2023/12/17 02:47:33;;;;;;;29.12;18.02;;;;;;;5.65;100.00;101376.46;1644688;84;25811;-59
2023/12/17 02:50:07;;;;;;;38.80;20.05;;;;;;;5.65;100.00;101392.56;1711770;81;27695;-60
2023/12/17 02:52:39;;;;;;;31.33;18.15;;;;;;;5.66;100.00;101401.45;1715939;82;26093;-59
2023/12/17 02:55:10;;;;;;;32.63;18.75;;;;;;;5.66;100.00;101386.69;1723656;81;25947;-59
2023/12/17 02:57:44;;;;;;;32.38;19.42;;;;;;;5.66;100.00;101401.45;1674504;84;25886;-59
2023/12/17 03:00:12;;;;;;;35.13;19.23;;;;;;;5.66;100.00;101404.94;1714030;82;26190;-58
2023/12/17 03:02:42;;;;;;;32.25;18.67;;;;;;;5.67;100.00;101382.92;1661628;82;27305;-58
2023/12/17 03:05:11;;;;;;;37.67;18.65;;;;;;;5.67;100.00;101378.89;1674537;83;26081;-58
2023/12/17 03:07:43;;;;;;;34.40;19.15;;;;;;;5.66;100.00;101382.13;1719168;81;25719;-60
2023/12/17 03:10:13;;;;;;;31.95;19.30;;;;;;;5.67;100.00;101369.50;1693362;82;25994;-58
2023/12/17 03:12:46;;;;;;;31.80;17.85;;;;;;;5.67;100.00;101378.39;1717774;81;25449;-59
2023/12/17 03:15:16;;;;;;;32.58;19.27;;;;;;;5.68;100.00;101394.76;1713573;81;27853;-58
2023/12/17 03:17:45;;;;;;;32.13;19.12;;;;;;;5.68;100.00;101377.84;1640516;84;25856;-59
2023/12/17 03:20:20;;;;;;;41.75;19.55;;;;;;;5.69;100.00;101386.20;1660642;83;25886;-59
2023/12/17 03:22:49;;;;;;;33.13;19.67;;;;;;;5.69;100.00;101394.25;1698304;82;25923;-57
2023/12/17 03:25:17;;;;;;;33.50;19.00;;;;;;;5.69;100.00;101391.03;1664929;83;25619;-58
2023/12/17 03:27:43;;;;;;;34.20;19.80;;;;;;;5.71;100.00;101394.80;1720243;81;27389;-59
2023/12/17 03:30:11;;;;;;;35.63;18.90;;;;;;;5.70;100.00;101391.29;1658378;83;25830;-58
2023/12/17 03:32:38;;;;;;;33.98;18.55;;;;;;;5.71;100.00;101390.78;1673240;84;25650;-58
2023/12/17 03:35:09;;;;;;;33.50;19.60;;;;;;;5.71;100.00;101383.53;1716619;81;25973;-58
2023/12/17 03:37:36;;;;;;;33.55;18.60;;;;;;;5.71;100.00;101402.32;1720591;80;25817;-57
2023/12/17 03:40:04;;;;;;;37.67;20.37;;;;;;;5.73;100.00;101398.84;1711482;81;27878;-59
2023/12/17 03:42:30;;;;;;;32.80;19.60;;;;;;;5.74;100.00;101397.80;1714702;81;25950;-58
2023/12/17 03:45:01;;;;;;;36.68;20.10;;;;;;;5.75;100.00;101401.28;1717180;81;25820;-57
2023/12/17 03:47:28;;;;;;;37.80;20.35;;;;;;;5.75;100.00;101400.75;1702473;81;25955;-59
2023/12/17 03:49:54;;;;;;;32.98;19.73;;;;;;;5.76;100.00;101386.81;1707709;81;26670;-58
2023/12/17 03:52:23;;;;;;;38.35;21.15;;;;;;;5.76;100.00;101386.27;1684509;81;27378;-59
2023/12/17 03:54:54;;;;;;;34.98;20.20;;;;;;;5.78;100.00;101391.40;1714432;80;25529;-59
2023/12/17 03:57:22;;;;;;;39.20;20.45;;;;;;;5.79;100.00;101397.06;1651156;84;26452;-59
2023/12/17 03:59:48;;;;;;;40.28;20.65;;;;;;;5.79;100.00;101390.34;1666970;84;26700;-58
2023/12/17 04:02:25;;;;;;;36.45;19.62;;;;;;;5.78;100.00;101380.12;1720920;82;25553;-59
2023/12/17 04:04:54;;;;;;;34.78;19.75;;;;;;;5.79;100.00;101379.61;1711349;81;28387;-59
2023/12/17 04:07:26;;;;;;;34.35;19.98;;;;;;;5.80;100.00;101375.84;1667500;83;25652;-59
2023/12/17 04:09:57;;;;;;;35.33;19.55;;;;;;;5.82;100.00;101371.03;1680160;84;26708;-59
2023/12/17 04:12:25;;;;;;;35.58;19.73;;;;;;;5.82;100.00;101371.57;1693496;82;26455;-59
2023/12/17 04:14:51;;;;;;;36.13;20.27;;;;;;;5.83;100.00;101379.37;1679100;82;25903;-58
2023/12/17 04:17:21;;;;;;;35.80;19.65;;;;;;;5.84;100.00;101381.52;1654782;84;28228;-59
2023/12/17 04:19:50;;;;;;;34.23;18.95;;;;;;;5.84;100.00;101386.38;1674277;83;26066;-57
2023/12/17 04:22:18;;;;;;;35.60;19.32;;;;;;;5.84;100.00;101381.02;1654629;83;25892;-59
2023/12/17 04:24:49;;;;;;;33.55;20.00;;;;;;;5.84;100.00;101378.33;1666828;83;26327;-59
2023/12/17 04:27:16;;;;;;;37.48;19.92;;;;;;;5.84;100.00;101385.04;1728295;80;25564;-59
2023/12/17 04:29:45;;;;;;;36.88;19.67;;;;;;;5.85;100.00;101373.76;1716033;81;27695;-58
2023/12/17 04:32:13;;;;;;;29.95;18.87;;;;;;;5.85;100.00;101375.91;1717741;81;25844;-57
2023/12/17 04:34:47;;;;;;;32.08;19.92;;;;;;;5.86;100.00;101391.51;1723741;80;25898;-58
2023/12/17 04:37:14;;;;;;;33.33;19.82;;;;;;;5.86;100.00;101390.16;1689871;81;26214;-59
2023/12/17 04:39:45;;;;;;;31.55;18.90;;;;;;;5.86;100.00;101381.57;1713930;81;25659;-58
2023/12/17 04:42:17;;;;;;;34.95;18.87;;;;;;;5.87;100.00;101389.89;1714278;81;27210;-58
2023/12/17 04:44:48;;;;;;;36.58;19.42;;;;;;;5.87;100.00;101379.69;1725849;80;25612;-58
2023/12/17 04:47:18;;;;;;;39.83;20.88;;;;;;;5.88;100.00;101390.72;1708973;81;25840;-58
2023/12/17 04:49:51;;;;;;;36.68;19.52;;;;;;;5.88;100.00;101384.81;1714916;81;25948;-58
2023/12/17 04:52:24;;;;;;;35.83;19.77;;;;;;;5.89;100.00;101381.58;1721835;82;25871;-57
2023/12/17 04:54:58;;;;;;;31.37;19.02;;;;;;;5.88;100.00;101388.03;1723435;81;28348;-58
2023/12/17 04:57:27;;;;;;;35.48;19.07;;;;;;;5.88;100.00;101388.84;1671235;84;26023;-57
2023/12/17 04:59:56;;;;;;;32.38;18.35;;;;;;;5.89;100.00;101377.55;1690231;83;25969;-58
2023/12/17 05:02:27;;;;;;;37.20;19.40;;;;;;;5.90;100.00;101363.08;1701099;83;25597;-57
2023/12/17 05:04:56;;;;;;;30.80;19.00;;;;;;;5.91;100.00;101368.74;1683642;82;25856;-59
2023/12/17 05:07:23;;;;;;;33.73;19.65;;;;;;;5.91;100.00;101375.45;1654408;83;28168;-57
2023/12/17 05:09:49;;;;;;;30.85;18.82;;;;;;;5.93;100.00;101382.72;1687524;82;25857;-58
2023/12/17 05:12:16;;;;;;;33.35;20.08;;;;;;;5.93;100.00;101387.55;1665952;83;25843;-57
2023/12/17 05:14:42;;;;;;;37.78;19.87;;;;;;;5.94;100.00;101380.30;1703689;82;25889;-57
2023/12/17 05:17:11;;;;;;;40.05;20.80;;;;;;;5.94;100.00;101387.02;1689998;83;25423;-58
2023/12/17 05:19:39;;;;;;;33.10;18.82;;;;;;;5.95;100.00;101389.45;1691150;81;27286;-59
2023/12/17 05:22:10;;;;;;;30.85;19.75;;;;;;;5.95;100.00;101398.85;1669927;83;26197;-58
2023/12/17 05:24:40;;;;;;;36.05;19.23;;;;;;;5.96;100.00;101407.23;1697486;83;25853;-57
2023/12/17 05:27:06;;;;;;;33.48;19.95;;;;;;;5.98;100.00;101393.02;1657143;83;26428;-58
2023/12/17 05:29:33;;;;;;;33.70;19.10;;;;;;;6.00;100.00;101408.08;1655609;83;25547;-58
2023/12/17 05:32:00;;;;;;;35.63;19.40;;;;;;;6.01;100.00;101392.22;1667181;83;28059;-56
2023/12/17 05:34:26;;;;;;;34.20;19.98;;;;;;;6.02;100.00;101392.52;1663121;83;26290;-59
2023/12/17 05:36:53;;;;;;;36.15;19.55;;;;;;;6.03;100.00;101404.36;1669000;83;25881;-57
2023/12/17 05:39:20;;;;;;;29.92;18.85;;;;;;;6.04;100.00;101415.36;1669460;83;26633;-56
2023/12/17 05:41:48;;;;;;;33.10;18.55;;;;;;;6.07;100.00;101410.03;1713775;82;25814;-57
2023/12/17 05:44:15;;;;;;;38.13;19.73;;;;;;;6.09;100.00;101417.30;1667742;84;27343;-58
2023/12/17 05:46:41;;;;;;;36.95;18.40;;;;;;;6.10;100.00;101414.91;1668874;84;25769;-59
2023/12/17 05:49:08;;;;;;;32.25;18.37;;;;;;;6.12;100.00;101414.13;1716591;80;25511;-59
2023/12/17 05:51:35;;;;;;;31.70;18.27;;;;;;;6.12;100.00;101408.20;1708418;82;26671;-59
2023/12/17 05:54:02;;;;;;;32.63;18.65;;;;;;;6.13;100.00;101408.50;1712680;80;25836;-59
2023/12/17 05:56:29;;;;;;;31.35;18.70;;;;;;;6.14;100.00;101400.70;1707835;82;28378;-58
2023/12/17 05:58:56;;;;;;;32.42;18.48;;;;;;;6.16;100.00;101407.17;1720009;81;25912;-57
2023/12/17 06:01:23;;;;;;;30.32;17.37;;;;;;;6.17;100.00;101410.95;1714794;81;25843;-56
2023/12/17 06:03:50;;;;;;;30.90;17.45;;;;;;;6.19;100.00;101411.25;1719304;80;25717;-57
2023/12/17 06:06:17;;;;;;;28.23;17.40;;;;;;;6.21;100.00;101417.17;1718735;81;25475;-60
2023/12/17 06:08:44;;;;;;;31.75;17.95;;;;;;;6.22;100.00;101408.06;1715945;81;28067;-58
2023/12/17 06:11:18;;;;;;;29.95;16.35;;;;;;;6.21;100.00;101400.51;1714290;81;25993;-58
2023/12/17 06:13:45;;;;;;;30.17;16.48;;;;;;;6.24;100.00;101420.16;1716829;82;25771;-59
2023/12/17 06:16:13;;;;;;;31.37;17.20;;;;;;;6.26;100.00;101419.38;1718116;82;25860;-59
2023/12/17 06:18:41;;;;;;;29.07;17.37;;;;;;;6.28;100.00;101421.81;1712163;82;25832;-56
2023/12/17 06:21:09;;;;;;;31.57;16.73;;;;;;;6.28;100.00;101411.89;1718782;82;27499;-58
2023/12/17 06:23:36;;;;;;;32.98;17.98;;;;;;;6.29;100.00;101411.35;1714551;82;26368;-55
2023/12/17 06:26:04;;;;;;;29.85;16.87;;;;;;;6.30;100.00;101409.77;1717780;82;25829;-57
2023/12/17 06:28:31;;;;;;;31.87;16.48;;;;;;;6.31;100.00;101415.39;1714402;82;26501;-57
2023/12/17 06:30:58;;;;;;;27.70;16.67;;;;;;;6.33;100.00;101420.01;1713002;82;25846;-58
2023/12/17 06:33:24;;;;;;;32.75;17.30;;;;;;;6.34;100.00;101425.64;1722618;82;27250;-57
2023/12/17 06:35:51;;;;;;;29.82;16.95;;;;;;;6.36;100.00;101415.98;1692112;82;25438;-58
2023/12/17 06:38:18;;;;;;;30.10;17.15;;;;;;;6.38;100.00;101417.08;1699229;80;25934;-58
2023/12/17 06:40:45;;;;;;;26.12;16.00;;;;;;;6.38;100.00;101415.20;1720611;80;25870;-57
2023/12/17 06:43:13;;;;;;;33.88;17.67;;;;;;;6.40;100.00;101411.72;1703728;81;25837;-59
2023/12/17 06:45:40;;;;;;;29.05;16.50;;;;;;;6.42;100.00;101411.47;1710453;82;27917;-58
2023/12/17 06:48:08;;;;;;;35.23;17.45;;;;;;;6.43;100.00;101421.97;1718278;81;25865;-58
2023/12/17 06:50:34;;;;;;;32.33;16.97;;;;;;;6.44;100.00;101415.54;1716117;81;25859;-58
2023/12/17 06:53:01;;;;;;;32.67;16.97;;;;;;;6.46;100.00;101411.26;1712149;81;25411;-58
2023/12/17 06:55:27;;;;;;;26.90;16.85;;;;;;;6.46;100.00;101412.60;1712606;80;25913;-57
2023/12/17 06:57:54;;;;;;;28.27;16.75;;;;;;;6.50;100.00;101429.83;1719381;81;28381;-59
2023/12/17 07:00:21;;;;;;;25.72;16.27;;;;;;;6.51;100.00;101428.78;1712802;82;26007;-58
2023/12/17 07:02:48;;;;;;;32.88;16.02;;;;;;;6.53;100.00;101440.08;1716703;81;25555;-55
2023/12/17 07:05:16;;;;;;;33.10;16.93;;;;;;;6.53;100.00;101435.52;1717406;81;26310;-57
2023/12/17 07:07:45;;;;;;;33.05;16.12;;;;;;;6.56;100.00;101446.30;1715222;80;25827;-57
2023/12/17 07:10:12;;;;;;;32.98;17.20;;;;;;;6.58;100.00;101451.43;1715600;80;27319;-59
2023/12/17 07:12:39;;;;;;;33.30;17.50;;;;;;;6.60;100.00;101460.05;1722409;81;25837;-58
2023/12/17 07:15:07;;;;;;;30.62;16.40;;;;;;;6.61;100.00;101469.20;1716829;81;25710;-56
2023/12/17 07:17:34;;;;;;;30.30;16.93;;;;;;;6.60;100.00;101468.91;1712742;81;26161;-58
2023/12/17 07:20:00;;;;;;;28.67;17.25;;;;;;;6.63;100.00;101466.27;1717840;80;25495;-57
2023/12/17 07:22:27;;;;;;;31.02;16.93;;;;;;;6.65;100.00;101484.30;1693279;81;27221;-59
2023/12/17 07:24:56;;;;;;;32.88;16.50;;;;;;;6.67;100.00;101481.61;1670080;84;26030;-56
2023/12/17 07:27:23;;;;;;;28.25;16.82;;;;;;;6.68;100.00;101477.87;1661559;84;25491;-57
2023/12/17 07:29:51;;;;;;;30.50;17.30;;;;;;;6.70;100.00;101482.46;1664891;84;26181;-58
2023/12/17 07:32:18;;;;;;;27.05;15.98;;;;;;;6.70;100.00;101481.11;1663960;84;25875;-58
2023/12/17 07:34:45;;;;;;;31.82;16.97;;;;;;;6.72;100.00;101482.20;1662663;83;28510;-57
2023/12/17 07:37:12;;;;;;;31.15;17.70;;;;;;;6.73;100.00;101485.19;1658263;84;25840;-57
2023/12/17 07:39:39;;;;;;;27.67;16.82;;;;;;;6.74;100.00;101481.42;1671745;84;25911;-59
2023/12/17 07:42:06;;;;;;;27.40;17.00;;;;;;;6.75;100.00;101497.84;1720794;82;25877;-59
2023/12/17 07:44:33;;;;;;;29.05;16.80;;;;;;;6.77;100.00;101498.94;1692044;82;25482;-58
2023/12/17 07:47:00;;;;;;;33.40;16.90;;;;;;;6.79;100.00;101502.17;1679713;84;28211;-57
2023/12/17 07:49:27;;;;;;;28.87;16.40;;;;;;;6.81;100.00;101506.77;1684076;82;26696;-60
2023/12/17 07:51:54;;;;;;;27.40;16.60;;;;;;;6.83;100.00;101504.66;1679416;84;25542;-58
2023/12/17 07:54:21;;;;;;;28.00;17.55;;;;;;;6.85;100.00;101507.36;1656052;84;26322;-58
2023/12/17 07:56:49;;;;;;;33.53;17.20;;;;;;;6.86;100.00;101506.81;1674322;83;25903;-58
2023/12/17 07:59:15;;;;;;;31.10;17.95;;;;;;;6.88;100.00;101504.70;1682848;83;27392;-58
2023/12/17 08:01:42;;;;;;;26.85;16.82;;;;;;;6.88;100.00;101498.78;1666158;84;26026;-58
2023/12/17 08:04:09;;;;;;;28.30;17.48;;;;;;;6.92;100.00;101503.12;1672956;84;25823;-57
2023/12/17 08:06:36;;;;;;;29.65;16.48;;;;;;;6.94;100.00;101506.90;1671699;84;26622;-59
2023/12/17 08:09:03;;;;;;;33.30;18.92;;;;;;;6.95;100.00;101489.16;1681530;84;25882;-58
2023/12/17 08:11:30;;;;;;;27.30;17.15;;;;;;;6.98;100.00;101495.90;1663230;84;27917;-59
2023/12/17 08:13:57;;;;;;;28.83;17.00;;;;;;;7.00;100.00;101507.21;1675258;83;25929;-58
2023/12/17 08:16:26;;;;;;;26.50;16.73;;;;;;;7.05;100.00;101521.54;1699484;82;25838;-57
2023/12/17 08:18:53;;;;;;;26.68;17.15;;;;;;;7.05;100.00;101521.54;1685517;81;26228;-58
2023/12/17 08:21:20;;;;;;;28.90;15.65;;;;;;;7.03;100.00;101514.27;1685575;82;25827;-55
2023/12/17 08:23:47;;;;;;;24.75;16.50;;;;;;;7.07;100.00;101519.94;1700215;82;27393;-56
2023/12/17 08:26:14;;;;;;;23.85;16.25;;;;;;;7.08;100.00;101530.45;1691966;82;25785;-58
2023/12/17 08:28:41;;;;;;;23.57;15.85;;;;;;;7.09;100.00;101525.33;1698869;82;25869;-58
2023/12/17 08:31:09;;;;;;;24.43;16.10;;;;;;;7.11;100.00;101529.11;1708382;81;26581;-58
2023/12/17 08:33:37;;;;;;;23.98;16.17;;;;;;;7.13;100.00;101532.36;1702319;82;25788;-57
2023/12/17 08:36:05;;;;;;;26.52;16.67;;;;;;;7.14;100.00;101525.92;1695655;81;27332;-57
2023/12/17 08:38:32;;;;;;;28.80;17.95;;;;;;;7.13;100.00;101516.21;1708521;82;25568;-57
2023/12/17 08:41:00;;;;;;;27.85;17.95;;;;;;;7.13;100.00;101519.45;1694976;82;25752;-58
2023/12/17 08:43:27;;;;;;;26.77;16.85;;;;;;;7.13;100.00;101537.73;1693060;82;26046;-58
2023/12/17 08:45:55;;;;;;;23.35;15.90;;;;;;;7.13;100.00;101535.59;1686712;82;25801;-57
2023/12/17 08:48:21;;;;;;;28.20;16.65;;;;;;;7.10;100.00;101533.70;1705209;81;27397;-55
2023/12/17 08:50:48;;;;;;;26.70;17.00;;;;;;;7.11;100.00;101535.30;1685756;82;26005;-53
2023/12/17 08:53:15;;;;;;;23.70;16.95;;;;;;;7.10;100.00;101531.00;1694792;81;26404;-55
2023/12/17 08:55:42;;;;;;;27.05;17.73;;;;;;;7.08;100.00;101534.48;1693040;83;26036;-55
2023/12/17 08:58:09;;;;;;;33.18;18.30;;;;;;;7.09;100.00;101537.44;1708090;81;25841;-54
2023/12/17 09:00:36;;;;;;;28.17;18.55;;;;;;;7.08;100.00;101529.11;1705138;82;28346;-53
2023/12/17 09:03:03;;;;;;;28.10;17.62;;;;;;;7.07;100.00;101524.78;1696555;82;26181;-55
2023/12/17 09:05:30;;;;;;;29.50;17.98;;;;;;;7.08;100.00;101529.62;1690948;82;25905;-56
2023/12/17 09:07:57;;;;;;;29.50;18.42;;;;;;;7.10;100.00;101532.34;1688774;81;25731;-57
2023/12/17 09:10:25;;;;;;;29.75;17.98;;;;;;;7.11;100.00;101522.39;1701261;82;25485;-58
2023/12/17 09:12:52;;;;;;;29.85;18.17;;;;;;;7.11;100.00;101528.58;1701127;82;27344;-58
2023/12/17 09:15:19;;;;;;;31.93;19.07;;;;;;;7.13;100.00;101531.55;1703803;81;26060;-58
2023/12/17 09:17:46;;;;;;;28.80;17.27;;;;;;;7.13;100.00;101527.52;1705089;81;26041;-57
2023/12/17 09:20:15;;;;;;;26.30;17.77;;;;;;;7.14;100.00;101517.05;1722396;82;26617;-57
2023/12/17 09:22:42;;;;;;;27.80;17.62;;;;;;;7.14;100.00;101514.36;1696483;82;25826;-58
2023/12/17 09:25:12;;;;;;;30.92;17.98;;;;;;;7.14;100.00;101520.54;1710630;82;28086;-56
2023/12/17 09:27:55;;;;;;;30.85;18.10;;;;;;;7.15;100.00;101514.10;1702207;83;25845;-57
2023/12/17 09:30:22;;;;;;;32.80;18.10;;;;;;;7.16;100.00;101514.36;1692824;82;25943;-53
2023/12/17 09:32:50;;;;;;;33.00;18.27;;;;;;;7.17;100.00;101510.61;1693630;81;26626;-55
2023/12/17 09:35:19;;;;;;;28.17;17.75;;;;;;;7.15;100.00;101510.58;1705265;81;25686;-56
2023/12/17 09:37:47;;;;;;;32.03;17.95;;;;;;;7.19;100.00;101525.97;1698878;81;28213;-57
2023/12/17 09:40:15;;;;;;;29.10;17.75;;;;;;;7.18;100.00;101520.30;1702685;82;25934;-53
2023/12/17 09:42:43;;;;;;;36.95;18.77;;;;;;;7.20;100.00;101507.42;1709205;81;25453;-56
2023/12/17 09:45:14;;;;;;;30.88;19.32;;;;;;;7.21;100.00;101513.06;1695278;82;25937;-56
2023/12/17 09:47:42;;;;;;;34.27;18.55;;;;;;;7.23;100.00;101514.16;1700583;81;25757;-56
2023/12/17 09:50:11;;;;;;;27.13;17.77;;;;;;;7.23;100.00;101514.95;1669009;84;27387;-58
2023/12/17 09:52:41;;;;;;;33.18;18.75;;;;;;;7.24;100.00;101515.78;1690405;82;25886;-57
2023/12/17 09:55:11;;;;;;;31.75;18.67;;;;;;;7.25;100.00;101521.43;1677919;82;25459;-57
2023/12/17 09:57:38;;;;;;;35.05;19.00;;;;;;;7.26;100.00;101514.99;1712621;81;26309;-57
2023/12/17 10:00:10;;;;;;;32.63;19.00;;;;;;;7.27;100.00;101513.39;1699635;81;25508;-56
2023/12/17 10:02:41;;;;;;;31.80;19.05;;;;;;;7.28;100.00;101515.54;1721935;80;27341;-56
2023/12/17 10:05:07;;;;;;;34.58;18.90;;;;;;;7.27;100.00;101510.70;1717950;81;25892;-54
2023/12/17 10:07:37;;;;;;;31.12;19.65;;;;;;;7.28;100.00;101508.81;1717405;80;25771;-55
2023/12/17 10:10:06;;;;;;;35.78;18.80;;;;;;;7.26;100.00;101511.75;1714841;80;25868;-52
2023/12/17 10:12:39;;;;;;;38.35;19.52;;;;;;;7.29;100.00;101513.94;1713747;81;25821;-55
2023/12/17 10:15:10;;;;;;;29.25;19.27;;;;;;;7.30;100.00;101512.05;1716812;81;27930;-56
2023/12/17 10:17:37;;;;;;;34.98;19.23;;;;;;;7.30;100.00;101521.47;1717027;82;25743;-54
2023/12/17 10:20:07;;;;;;;30.17;19.65;;;;;;;7.29;100.00;101516.63;1722969;82;25884;-56
2023/12/17 10:22:34;;;;;;;33.40;19.98;;;;;;;7.31;100.00;101512.88;1717201;82;26183;-57
2023/12/17 10:25:01;;;;;;;34.83;19.15;;;;;;;7.31;100.00;101510.99;1692653;81;25687;-57
2023/12/17 10:27:30;;;;;;;31.82;19.37;;;;;;;7.32;100.00;101511.80;1716408;82;28146;-63
2023/12/17 10:29:59;;;;;;;37.88;20.02;;;;;;;7.31;100.00;101510.19;1678571;84;25528;-59
2023/12/17 10:32:30;;;;;;;;;;;;;;;7.31;100.00;101506.95;1674434;84;25787;-61
2023/12/17 10:34:54;;;;;;;31.75;18.98;;;;;;;7.32;100.00;101510.45;1718612;80;26217;-60
2023/12/17 10:37:24;;;;;;;35.08;19.02;;;;;;;7.31;100.00;101506.95;1711687;81;25884;-62
2023/12/17 10:39:54;;;;;;;37.60;19.90;;;;;;;7.31;100.00;101500.77;1724496;80;28029;-61
2023/12/17 10:42:22;;;;;;;32.13;19.10;;;;;;;7.29;100.00;101497.79;1714127;82;25416;-60
2023/12/17 10:44:52;;;;;;;32.35;18.95;;;;;;;7.29;100.00;101500.48;1722762;80;26364;-60
2023/12/17 10:47:24;;;;;;;31.87;19.10;;;;;;;7.29;100.00;101490.27;1720789;81;26300;-60
2023/12/17 10:49:54;;;;;;;33.35;19.95;;;;;;;7.31;100.00;101495.39;1712115;80;25470;-60
2023/12/17 10:52:22;;;;;;;35.70;19.90;;;;;;;7.31;100.00;101496.73;1712838;80;27329;-60
2023/12/17 10:54:49;;;;;;;32.67;18.87;;;;;;;7.33;100.00;101498.63;1717523;81;25464;-61
2023/12/17 10:57:21;;;;;;;28.95;18.62;;;;;;;7.33;100.00;101503.47;1720013;81;25902;-59
2023/12/17 10:59:51;;;;;;;38.42;20.62;;;;;;;7.34;100.00;101505.61;1712430;81;25694;-60
2023/12/17 11:02:22;;;;;;;27.73;17.73;;;;;;;7.33;100.00;101506.16;1717306;81;25472;-60
2023/12/17 11:04:50;;;;;;;30.45;17.92;;;;;;;7.32;100.00;101504.55;1722833;81;27759;-62
2023/12/17 11:07:22;;;;;;;29.15;17.90;;;;;;;7.32;100.00;101507.76;1711710;81;25711;-60
2023/12/17 11:09:50;;;;;;;28.12;18.07;;;;;;;7.32;100.00;101511.80;1721344;81;26572;-59
2023/12/17 11:12:18;;;;;;;28.75;17.73;;;;;;;7.32;100.00;101503.20;1684338;82;25722;-61
2023/12/17 11:14:47;;;;;;;32.60;18.00;;;;;;;7.33;100.00;101508.05;1725237;81;25439;-61